Terminal Aerodrome Forecast
Issued by NWS

Home | Current Version | Previous Version | Graphics & Text | Print | Product List | Glossary On
Versions: 1 2 3 4 5 6 7 8 9 10 11 12
994
FTUS43 KICT 292327
TAFHUT
TAF
KHUT 292327Z 3000/3024 31010KT P6SM BKN060
     FM301100 31010KT P6SM SCT100
     FM301700 30016G24KT P6SM FEW200
     FM302300 30011KT P6SM FEW200=

USA.gov is the U.S. government's official web portal to all federal, state and local government web resources and services.